Terminal Aerodrome Forecast
Issued by NWS

Home | Current Version | Previous Version | Text Only | Print | Product List | Glossary On
Versions: 1 2 3 4 5 6 7 8 9 10 11 12 13 14 15 16 17 18 19 20 21
000
FTUS46 KMTR 031140
TAFSNS
TAF
KSNS 031140Z 0312/0412 09003KT P6SM OVC005
     FM031630 VRB03KT P6SM SCT009
     FM032000 29012KT P6SM SCT200
     FM040300 26008KT P6SM BKN009
     FM040500 29006KT P6SM OVC007=

USA.gov is the U.S. government's official web portal to all federal, state and local government web resources and services.